createdAt,value
2018-04-11T00:02:25.072Z,90.40
2018-04-11T00:04:52.572Z,90.40
2018-04-11T00:07:20.047Z,90.80
2018-04-11T00:09:47.525Z,90.70
2018-04-11T00:12:14.995Z,90.80
2018-04-11T00:14:42.519Z,90.90
2018-04-11T00:17:10.772Z,90.90
2018-04-11T00:19:38.291Z,90.90
2018-04-11T00:22:05.792Z,91.00
2018-04-11T00:24:33.267Z,90.90
2018-04-11T00:27:01.525Z,90.80
2018-04-11T00:29:29.110Z,90.80
2018-04-11T00:31:57.358Z,90.70
2018-04-11T00:34:25.166Z,90.70
2018-04-11T00:36:52.621Z,90.70
2018-04-11T00:39:20.166Z,90.70
2018-04-11T00:41:47.688Z,90.70
2018-04-11T00:44:15.956Z,90.80
2018-04-11T00:46:43.435Z,90.70
2018-04-11T00:49:11.740Z,91.00
2018-04-11T00:51:39.242Z,91.00
2018-04-11T00:54:08.225Z,90.90
2018-04-11T00:56:35.791Z,90.90
2018-04-11T00:59:03.280Z,91.00
2018-04-11T01:01:30.835Z,91.00
2018-04-11T01:03:58.368Z,91.00
2018-04-11T01:06:25.871Z,91.00
2018-04-11T01:08:53.386Z,91.00
2018-04-11T01:11:20.895Z,91.00
2018-04-11T01:13:48.389Z,91.00
2018-04-11T01:16:15.922Z,91.10
2018-04-11T01:18:43.488Z,91.10
2018-04-11T01:21:10.987Z,91.60
2018-04-11T01:23:39.368Z,91.60
2018-04-11T01:26:06.916Z,91.60
2018-04-11T01:28:35.293Z,91.80
2018-04-11T01:31:03.524Z,91.90
2018-04-11T01:33:31.025Z,91.80
2018-04-11T01:35:59.374Z,92.00
2018-04-11T01:38:27.742Z,91.80
2018-04-11T01:40:55.218Z,92.00
2018-04-11T01:43:23.478Z,92.00
2018-04-11T01:45:51.035Z,92.00
2018-04-11T01:48:18.516Z,92.00
2018-04-11T01:50:46.798Z,92.00
2018-04-11T01:53:14.310Z,92.00
2018-04-11T01:55:41.871Z,92.20
2018-04-11T01:58:09.471Z,92.20
2018-04-11T02:00:36.957Z,92.20
2018-04-11T02:03:04.458Z,92.20
2018-04-11T02:05:31.935Z,92.20
2018-04-11T02:08:00.201Z,92.20
2018-04-11T02:10:28.578Z,92.20
2018-04-11T02:12:56.027Z,92.20
2018-04-11T02:15:24.277Z,92.30
2018-04-11T02:17:51.796Z,92.30
2018-04-11T02:20:19.286Z,92.40
2018-04-11T02:22:46.772Z,92.40
2018-04-11T02:25:14.245Z,92.50
2018-04-11T02:27:41.776Z,92.50
2018-04-11T02:30:09.253Z,92.60
2018-04-11T02:32:37.528Z,92.60
2018-04-11T02:35:05.788Z,92.60
2018-04-11T02:37:34.116Z,92.60
2018-04-11T02:40:01.826Z,92.60
2018-04-11T02:42:29.332Z,92.60
2018-04-11T02:44:56.837Z,92.60
2018-04-11T02:47:25.097Z,92.70
2018-04-11T02:49:52.681Z,92.60
2018-04-11T02:52:21.039Z,92.70
2018-04-11T02:54:48.600Z,92.90
2018-04-11T02:57:16.096Z,92.70
2018-04-11T02:59:43.608Z,92.70
2018-04-11T03:02:11.179Z,92.80
2018-04-11T03:04:39.431Z,92.80
2018-04-11T03:07:06.896Z,92.80
2018-04-11T03:09:35.213Z,92.90
2018-04-11T03:12:02.722Z,92.90
2018-04-11T03:14:30.258Z,92.90
2018-04-11T03:16:57.726Z,93.00
2018-04-11T03:19:25.269Z,93.10
2018-04-11T03:21:52.877Z,93.10
2018-04-11T03:24:20.305Z,92.70
2018-04-11T03:26:47.853Z,92.80
2018-04-11T03:29:15.294Z,92.90
2018-04-11T03:31:42.829Z,93.00
2018-04-11T03:34:10.309Z,93.10
2018-04-11T03:36:37.872Z,93.10
2018-04-11T03:39:05.337Z,93.20
2018-04-11T03:41:32.889Z,93.20
2018-04-11T03:44:00.440Z,93.20
2018-04-11T03:46:28.002Z,93.20
2018-04-11T03:48:55.569Z,93.20
2018-04-11T03:51:23.124Z,93.20
2018-04-11T03:53:52.094Z,93.30
2018-04-11T03:56:19.535Z,93.50
2018-04-11T03:58:47.009Z,93.20
2018-04-11T04:01:14.601Z,93.20
2018-04-11T04:03:42.129Z,93.30
2018-04-11T04:06:09.572Z,93.30
2018-04-11T04:08:37.811Z,93.30
2018-04-11T04:11:05.284Z,93.30
2018-04-11T04:13:44.893Z,93.30
2018-04-11T04:16:24.285Z,93.30
2018-04-11T04:19:03.693Z,93.40
2018-04-11T04:21:31.188Z,93.40
2018-04-11T04:23:58.633Z,93.40
2018-04-11T04:26:26.092Z,93.50
2018-04-11T04:28:53.657Z,93.50
2018-04-11T04:31:21.206Z,93.60
2018-04-11T04:33:48.662Z,93.60
2018-04-11T04:36:16.118Z,93.60
2018-04-11T04:38:43.594Z,93.60
2018-04-11T04:41:11.131Z,93.70
2018-04-11T04:43:38.582Z,93.70
2018-04-11T04:46:06.117Z,93.70
2018-04-11T04:48:33.589Z,93.70
2018-04-11T04:51:01.034Z,93.70
2018-04-11T04:53:28.607Z,93.70
2018-04-11T04:55:56.150Z,93.70
2018-04-11T04:58:23.626Z,93.80
2018-04-11T05:00:51.102Z,93.80
2018-04-11T05:03:18.641Z,93.80
2018-04-11T05:05:46.230Z,93.90
2018-04-11T05:08:14.576Z,93.90
2018-04-11T05:10:42.109Z,93.80
2018-04-11T05:13:09.692Z,93.80
2018-04-11T05:15:37.174Z,93.70
2018-04-11T05:18:04.705Z,93.70
2018-04-11T05:20:32.246Z,93.70
2018-04-11T05:22:59.748Z,93.70
2018-04-11T05:25:28.004Z,93.60
2018-04-11T05:27:55.447Z,93.60
2018-04-11T05:30:22.994Z,93.60
2018-04-11T05:32:50.477Z,93.50
2018-04-11T05:35:19.045Z,93.50
2018-04-11T05:37:46.489Z,93.50
2018-04-11T05:40:13.972Z,93.50
2018-04-11T05:42:42.918Z,93.40
2018-04-11T05:45:10.365Z,93.40
2018-04-11T05:47:37.819Z,93.40
2018-04-11T05:50:05.281Z,93.30
2018-04-11T05:52:32.739Z,93.30
2018-04-11T05:55:01.137Z,93.20
2018-04-11T05:57:28.606Z,93.30
2018-04-11T05:59:56.160Z,93.20
2018-04-11T06:02:25.115Z,93.20
2018-04-11T06:04:52.588Z,93.20
2018-04-11T06:07:20.867Z,93.10
2018-04-11T06:09:48.334Z,93.10
2018-04-11T06:12:15.809Z,93.10
2018-04-11T06:14:43.258Z,93.10
2018-04-11T06:17:10.794Z,93.00
2018-04-11T06:19:39.032Z,93.00
2018-04-11T06:22:07.175Z,93.00
2018-04-11T06:24:35.405Z,93.00
2018-04-11T06:27:02.869Z,92.90
2018-04-11T06:29:30.421Z,92.70
2018-04-11T06:31:57.954Z,92.60
2018-04-11T06:34:25.442Z,92.70
2018-04-11T06:36:52.997Z,92.70
2018-04-11T06:39:20.456Z,92.60
2018-04-11T06:41:47.948Z,92.60
2018-04-11T06:44:16.182Z,92.60
2018-04-11T06:46:43.742Z,92.60
2018-04-11T06:49:11.181Z,92.50
2018-04-11T06:51:38.832Z,92.50
2018-04-11T06:54:06.262Z,92.40
2018-04-11T06:56:34.499Z,92.20
2018-04-11T06:59:02.074Z,92.20
2018-04-11T07:01:29.537Z,92.10
2018-04-11T07:03:57.769Z,92.10
2018-04-11T07:06:25.232Z,92.10
2018-04-11T07:08:52.942Z,92.00
2018-04-11T07:11:21.180Z,91.90
2018-04-11T07:13:48.727Z,91.90
2018-04-11T07:16:16.276Z,91.60
2018-04-11T07:18:43.737Z,91.60
2018-04-11T07:21:11.293Z,91.60
2018-04-11T07:23:38.841Z,90.90
2018-04-11T07:26:06.309Z,90.80
2018-04-11T07:28:33.862Z,90.80
2018-04-11T07:31:01.418Z,90.30
2018-04-11T07:33:28.871Z,90.40
2018-04-11T07:35:56.336Z,90.50
2018-04-11T07:38:23.895Z,90.60
2018-04-11T07:40:51.388Z,90.70
2018-04-11T07:43:19.605Z,90.30
2018-04-11T07:45:47.079Z,90.30
2018-04-11T07:48:14.540Z,90.30
2018-04-11T07:50:42.097Z,89.70
2018-04-11T07:53:09.674Z,89.80
2018-04-11T07:55:37.203Z,87.60
2018-04-11T07:58:04.667Z,87.10
2018-04-11T08:00:32.133Z,86.00
2018-04-11T08:02:59.597Z,85.50
2018-04-11T08:05:27.816Z,85.60
2018-04-11T08:07:55.310Z,84.70
2018-04-11T08:10:22.853Z,84.70
2018-04-11T08:12:50.425Z,85.50
2018-04-11T08:15:17.869Z,86.20
2018-04-11T08:17:45.328Z,86.40
2018-04-11T08:20:12.857Z,85.30
2018-04-11T08:22:40.307Z,84.60
2018-04-11T08:25:07.794Z,84.50
2018-04-11T08:27:35.253Z,83.50
2018-04-11T08:30:02.807Z,82.80
2018-04-11T08:32:30.253Z,82.80
2018-04-11T08:34:57.717Z,81.50
2018-04-11T08:37:25.195Z,80.70
2018-04-11T08:39:52.733Z,79.30
2018-04-11T08:42:20.285Z,80.10
2018-04-11T08:44:47.853Z,79.60
2018-04-11T08:47:15.399Z,79.10
2018-04-11T08:49:42.861Z,79.10
2018-04-11T08:52:10.358Z,80.00
2018-04-11T08:54:38.626Z,80.80
2018-04-11T08:57:06.833Z,79.60
2018-04-11T08:59:34.297Z,79.60
2018-04-11T09:02:01.743Z,78.50
2018-04-11T09:04:29.257Z,79.00
2018-04-11T09:06:56.811Z,79.40
2018-04-11T09:09:24.350Z,78.60
2018-04-11T09:11:51.822Z,80.20
2018-04-11T09:14:19.352Z,77.50
2018-04-11T09:16:46.840Z,76.40
2018-04-11T09:19:14.415Z,77.30
2018-04-11T09:21:42.648Z,76.90
2018-04-11T09:24:10.110Z,76.80
2018-04-11T09:26:37.659Z,76.20
2018-04-11T09:29:05.117Z,76.00
2018-04-11T09:31:32.578Z,75.50
2018-04-11T09:34:00.089Z,75.90
2018-04-11T09:36:27.583Z,74.90
2018-04-11T09:38:55.063Z,74.50
2018-04-11T09:41:22.524Z,75.70
2018-04-11T09:43:49.958Z,73.90
2018-04-11T09:46:17.533Z,74.90
2018-04-11T09:48:45.764Z,71.30
2018-04-11T09:51:13.222Z,70.90
2018-04-11T09:53:40.690Z,70.10
2018-04-11T09:56:08.163Z,69.90
2018-04-11T09:58:35.724Z,67.70
2018-04-11T10:01:04.922Z,67.00
2018-04-11T10:03:32.394Z,66.90
2018-04-11T10:06:00.631Z,64.00
2018-04-11T10:08:28.091Z,64.00
2018-04-11T10:10:55.570Z,63.90
2018-04-11T10:13:24.560Z,61.30
2018-04-11T10:15:52.069Z,61.20
2018-04-11T10:18:19.495Z,62.10
2018-04-11T10:20:46.983Z,60.40
2018-04-11T10:23:14.427Z,62.80
2018-04-11T10:25:41.921Z,62.20
2018-04-11T10:28:09.376Z,63.30
2018-04-11T10:30:36.842Z,65.10
2018-04-11T10:33:04.303Z,65.10
2018-04-11T10:35:31.814Z,65.30
2018-04-11T10:37:59.316Z,67.60
2018-04-11T10:40:26.862Z,64.70
2018-04-11T10:42:54.419Z,64.30
2018-04-11T10:45:21.973Z,63.00
2018-04-11T10:47:49.457Z,62.90
2018-04-11T10:50:17.714Z,64.90
2018-04-11T10:52:45.356Z,64.20
2018-04-11T10:55:12.825Z,63.50
2018-04-11T10:57:40.379Z,62.90
2018-04-11T11:00:07.957Z,61.50
2018-04-11T11:02:36.934Z,62.60
2018-04-11T11:05:04.489Z,62.60
2018-04-11T11:07:32.046Z,59.90
2018-04-11T11:09:59.536Z,61.00
2018-04-11T11:12:27.765Z,62.70
2018-04-11T11:14:55.327Z,62.60
2018-04-11T11:17:22.990Z,62.70
2018-04-11T11:20:01.427Z,64.40
2018-04-11T11:22:28.878Z,62.50
2018-04-11T11:24:56.363Z,63.20
2018-04-11T11:27:23.893Z,63.40
2018-04-11T11:29:51.429Z,63.70
2018-04-11T11:32:18.882Z,65.60
2018-04-11T11:34:46.322Z,65.60
2018-04-11T11:37:13.808Z,65.40
2018-04-11T11:39:41.280Z,64.80
2018-04-11T11:42:08.822Z,65.40
2018-04-11T11:44:37.817Z,66.60
2018-04-11T11:47:05.354Z,66.60
2018-04-11T11:49:33.035Z,66.50
2018-04-11T11:52:00.512Z,67.40
2018-04-11T11:54:28.004Z,65.30
2018-04-11T11:56:55.469Z,64.70
2018-04-11T11:59:22.933Z,62.00
2018-04-11T12:01:50.400Z,65.10
2018-04-11T12:04:17.955Z,61.50
2018-04-11T12:06:45.426Z,61.30
2018-04-11T12:09:12.903Z,62.20
2018-04-11T12:11:41.184Z,62.30
2018-04-11T12:14:09.410Z,62.30
2018-04-11T12:16:36.888Z,62.20
2018-04-11T12:19:04.334Z,62.30
2018-04-11T12:21:31.810Z,62.60
2018-04-11T12:23:59.347Z,62.70
2018-04-11T12:26:26.900Z,62.30
2018-04-11T12:28:54.462Z,64.80
2018-04-11T12:31:21.909Z,62.70
2018-04-11T12:33:49.372Z,60.50
2018-04-11T12:36:16.859Z,60.60
2018-04-11T12:38:45.119Z,59.10
2018-04-11T12:41:12.567Z,59.10
2018-04-11T12:43:40.031Z,58.80
2018-04-11T12:46:07.575Z,58.70
2018-04-11T12:48:35.029Z,57.70
2018-04-11T12:51:02.489Z,59.00
2018-04-11T12:53:30.701Z,55.40
2018-04-11T12:55:58.225Z,55.40
2018-04-11T12:58:25.778Z,54.30
2018-04-11T13:00:53.318Z,55.20
2018-04-11T13:03:20.913Z,54.90
2018-04-11T13:05:48.365Z,54.00
2018-04-11T13:08:15.903Z,54.20
2018-04-11T13:10:43.454Z,54.50
2018-04-11T13:13:11.027Z,54.50
2018-04-11T13:15:38.578Z,55.10
2018-04-11T13:18:06.137Z,53.40
2018-04-11T13:20:33.610Z,53.70
2018-04-11T13:23:01.157Z,54.60
2018-04-11T13:25:28.695Z,53.20
2018-04-11T13:27:56.154Z,55.00
2018-04-11T13:30:23.626Z,58.20
2018-04-11T13:32:51.171Z,58.90
2018-04-11T13:35:18.623Z,57.60
2018-04-11T13:37:46.111Z,57.10
2018-04-11T13:40:14.376Z,59.80
2018-04-11T13:42:41.849Z,59.80
2018-04-11T13:45:10.089Z,61.10
2018-04-11T13:47:37.686Z,61.10
2018-04-11T13:50:05.989Z,61.00
2018-04-11T13:52:33.471Z,61.00
2018-04-11T13:55:00.931Z,61.20
2018-04-11T13:57:28.431Z,61.90
2018-04-11T13:59:55.951Z,63.00
2018-04-11T14:02:23.503Z,64.90
2018-04-11T14:04:50.959Z,64.90
2018-04-11T14:07:18.510Z,66.00
2018-04-11T14:09:45.975Z,65.90
2018-04-11T14:12:13.533Z,65.30
2018-04-11T14:14:40.997Z,65.80
2018-04-11T14:17:09.371Z,67.50
2018-04-11T14:19:36.811Z,66.90
2018-04-11T14:22:04.378Z,67.80
2018-04-11T14:24:31.858Z,69.40
2018-04-11T14:26:59.314Z,70.10
2018-04-11T14:29:26.766Z,71.30
2018-04-11T14:31:55.020Z,71.10
2018-04-11T14:34:22.573Z,71.60
2018-04-11T14:36:50.040Z,71.20
2018-04-11T14:39:17.585Z,71.20
2018-04-11T14:41:45.073Z,71.00
2018-04-11T14:44:13.309Z,70.60
2018-04-11T14:46:40.761Z,70.40
2018-04-11T14:49:08.231Z,69.90
2018-04-11T14:51:35.820Z,70.10
2018-04-11T14:54:04.048Z,71.30
2018-04-11T14:56:31.631Z,71.30
2018-04-11T14:58:59.100Z,71.20
2018-04-11T15:01:26.646Z,71.40
2018-04-11T15:03:54.202Z,71.50
2018-04-11T15:06:21.686Z,71.50
2018-04-11T15:08:49.902Z,72.00
2018-04-11T15:11:17.367Z,71.90
2018-04-11T15:13:44.945Z,72.20
2018-04-11T15:16:12.388Z,71.60
2018-04-11T15:18:39.848Z,71.20
2018-04-11T15:21:07.314Z,71.30
2018-04-11T15:23:34.756Z,72.00
2018-04-11T15:26:02.391Z,72.30
2018-04-11T15:28:29.827Z,71.80
2018-04-11T15:30:57.329Z,71.70
2018-04-11T15:33:24.793Z,72.50
2018-04-11T15:35:52.225Z,71.60
2018-04-11T15:38:19.796Z,71.70
2018-04-11T15:40:47.243Z,71.70
2018-04-11T15:43:14.844Z,71.80
2018-04-11T15:45:42.363Z,71.80
2018-04-11T15:48:09.824Z,72.40
2018-04-11T15:50:37.342Z,72.80
2018-04-11T15:53:04.846Z,73.30
2018-04-11T15:55:32.306Z,72.80
2018-04-11T15:57:59.851Z,72.50
2018-04-11T16:00:27.355Z,72.00
2018-04-11T16:02:55.565Z,72.20
2018-04-11T16:05:23.048Z,72.20
2018-04-11T16:07:50.490Z,72.30
2018-04-11T16:10:17.951Z,72.70
2018-04-11T16:12:45.516Z,73.40
2018-04-11T16:15:12.978Z,73.60
2018-04-11T16:17:40.456Z,74.30
2018-04-11T16:20:08.718Z,74.80
2018-04-11T16:22:36.162Z,74.70
2018-04-11T16:25:03.629Z,75.40
2018-04-11T16:27:31.903Z,76.00
2018-04-11T16:29:59.335Z,75.30
2018-04-11T16:32:26.891Z,75.60
2018-04-11T16:34:54.405Z,75.90
2018-04-11T16:37:21.895Z,76.00
2018-04-11T16:39:49.358Z,76.50
2018-04-11T16:42:16.933Z,77.10
2018-04-11T16:44:44.466Z,76.70
2018-04-11T16:47:11.917Z,77.10
2018-04-11T16:49:39.382Z,76.70
2018-04-11T16:52:06.977Z,77.00
2018-04-11T16:54:35.243Z,77.00
2018-04-11T16:57:03.600Z,76.90
2018-04-11T16:59:31.153Z,76.90
2018-04-11T17:01:58.711Z,77.30
2018-04-11T17:04:26.185Z,77.30
2018-04-11T17:06:53.634Z,77.10
2018-04-11T17:09:21.099Z,77.70
2018-04-11T17:11:48.550Z,77.00
2018-04-11T17:14:16.033Z,77.10
2018-04-11T17:16:44.595Z,77.20
2018-04-11T17:19:12.043Z,77.20
2018-04-11T17:21:51.506Z,78.10
2018-04-11T17:24:31.511Z,77.50
2018-04-11T17:27:11.060Z,77.50
2018-04-11T17:29:50.327Z,77.80
2018-04-11T17:32:17.782Z,77.80
2018-04-11T17:34:46.117Z,78.70
2018-04-11T17:37:13.574Z,78.60
2018-04-11T17:39:41.034Z,78.40
2018-04-11T17:42:08.526Z,78.40
2018-04-11T17:44:36.733Z,78.60
2018-04-11T17:47:04.234Z,78.50
2018-04-11T17:49:31.783Z,78.70
2018-04-11T17:51:59.366Z,79.00
2018-04-11T17:54:28.222Z,79.70
2018-04-11T17:56:56.464Z,79.90
2018-04-11T17:59:23.923Z,79.80
2018-04-11T18:01:51.403Z,79.70
2018-04-11T18:04:18.891Z,79.90
2018-04-11T18:06:47.121Z,80.80
2018-04-11T18:09:14.574Z,80.70
2018-04-11T18:11:42.041Z,80.90
2018-04-11T18:14:09.523Z,81.40
2018-04-11T18:16:37.059Z,81.80
2018-04-11T18:19:04.617Z,82.30
2018-04-11T18:21:32.131Z,82.60
2018-04-11T18:23:59.636Z,82.90
2018-04-11T18:26:27.062Z,83.20
2018-04-11T18:28:54.602Z,83.50
2018-04-11T18:31:22.059Z,83.70
2018-04-11T18:33:50.328Z,83.90
2018-04-11T18:36:17.834Z,84.00
2018-04-11T18:38:45.307Z,83.90
2018-04-11T18:41:13.558Z,84.70
2018-04-11T18:43:41.012Z,84.60
2018-04-11T18:46:08.689Z,85.10
2018-04-11T18:48:37.020Z,85.30
2018-04-11T18:51:04.615Z,85.20
2018-04-11T18:53:32.135Z,85.60
2018-04-11T18:55:59.626Z,85.90
2018-04-11T18:58:27.116Z,86.10
2018-04-11T19:00:55.332Z,86.80
2018-04-11T19:03:22.806Z,86.80
2018-04-11T19:05:50.291Z,86.60
2018-04-11T19:08:17.778Z,86.40
2018-04-11T19:10:45.217Z,86.30
2018-04-11T19:13:13.602Z,86.60
2018-04-11T19:15:41.026Z,86.40
2018-04-11T19:18:08.487Z,86.70
2018-04-11T19:20:37.062Z,86.70
2018-04-11T19:23:05.431Z,86.50
2018-04-11T19:25:32.979Z,86.60
2018-04-11T19:28:00.543Z,86.60
2018-04-11T19:30:28.027Z,86.40
2018-04-11T19:32:56.264Z,87.30
2018-04-11T19:35:23.736Z,87.00
2018-04-11T19:37:51.287Z,87.50
2018-04-11T19:40:19.564Z,88.30
2018-04-11T19:42:47.024Z,88.00
2018-04-11T19:45:14.475Z,88.30
2018-04-11T19:47:42.022Z,88.40
2018-04-11T19:50:09.532Z,88.00
2018-04-11T19:52:37.053Z,88.00
2018-04-11T19:55:04.616Z,88.20
2018-04-11T19:57:32.876Z,89.10
2018-04-11T20:00:00.346Z,89.10
2018-04-11T20:02:27.886Z,89.40
2018-04-11T20:04:55.371Z,89.50
2018-04-11T20:07:23.607Z,89.30
2018-04-11T20:09:51.071Z,89.30
2018-04-11T20:12:18.538Z,89.30
2018-04-11T20:14:46.010Z,89.40
2018-04-11T20:17:14.608Z,90.30
2018-04-11T20:19:42.123Z,90.30
2018-04-11T20:22:09.653Z,90.40
2018-04-11T20:24:37.144Z,90.40
2018-04-11T20:27:04.697Z,90.60
2018-04-11T20:29:32.257Z,90.70
2018-04-11T20:32:00.482Z,90.80
2018-04-11T20:34:27.984Z,90.80
2018-04-11T20:36:55.521Z,90.70
2018-04-11T20:39:23.090Z,90.90
2018-04-11T20:41:50.606Z,91.00
2018-04-11T20:44:18.127Z,91.00
2018-04-11T20:46:46.500Z,91.20
2018-04-11T20:49:14.783Z,91.00
2018-04-11T20:51:43.028Z,91.70
2018-04-11T20:54:10.479Z,91.30
2018-04-11T20:56:38.047Z,91.50
2018-04-11T20:59:06.490Z,91.40
2018-04-11T21:01:34.275Z,91.40
2018-04-11T21:04:01.763Z,91.40
2018-04-11T21:06:29.214Z,91.50
2018-04-11T21:08:56.692Z,91.50
2018-04-11T21:11:25.067Z,91.60
2018-04-11T21:13:53.369Z,91.70
2018-04-11T21:16:20.813Z,91.70
2018-04-11T21:18:48.338Z,91.70
2018-04-11T21:21:15.916Z,91.80
2018-04-11T21:23:54.787Z,92.00
2018-04-11T21:26:23.084Z,92.00
2018-04-11T21:28:50.658Z,92.10
2018-04-11T21:31:18.114Z,92.10
2018-04-11T21:33:46.374Z,92.30
2018-04-11T21:36:13.943Z,92.20
2018-04-11T21:38:42.194Z,92.50
2018-04-11T21:41:09.720Z,92.50
2018-04-11T21:43:37.198Z,92.50
2018-04-11T21:46:04.766Z,92.60
2018-04-11T21:48:32.326Z,92.70
2018-04-11T21:50:59.822Z,92.80
2018-04-11T21:53:27.248Z,92.90
2018-04-11T21:55:54.688Z,93.00
2018-04-11T21:58:22.174Z,93.00
2018-04-11T22:00:49.709Z,93.00
2018-04-11T22:03:17.261Z,92.90
2018-04-11T22:05:44.828Z,92.90
2018-04-11T22:08:12.291Z,92.80
2018-04-11T22:10:39.756Z,92.90
2018-04-11T22:13:07.222Z,92.80
2018-04-11T22:15:35.467Z,92.80
2018-04-11T22:18:02.942Z,92.80
2018-04-11T22:20:30.461Z,92.80
2018-04-11T22:22:58.067Z,92.80
2018-04-11T22:25:25.490Z,92.80
2018-04-11T22:27:53.046Z,92.80
2018-04-11T22:30:20.503Z,92.80
2018-04-11T22:32:47.974Z,92.90
2018-04-11T22:35:15.516Z,92.90
2018-04-11T22:37:43.078Z,92.90
2018-04-11T22:40:10.541Z,93.00
2018-04-11T22:42:38.800Z,93.10
2018-04-11T22:45:06.252Z,93.10
2018-04-11T22:47:33.705Z,93.20
2018-04-11T22:50:01.280Z,93.30
2018-04-11T22:52:28.745Z,93.40
2018-04-11T22:54:56.963Z,93.40
2018-04-11T22:57:24.486Z,93.40
2018-04-11T22:59:52.746Z,93.40
2018-04-11T23:02:21.021Z,93.50
2018-04-11T23:04:49.386Z,93.50
2018-04-11T23:07:16.840Z,93.50
2018-04-11T23:09:44.312Z,93.50
2018-04-11T23:12:11.786Z,93.60
2018-04-11T23:14:40.027Z,93.80
2018-04-11T23:17:07.480Z,93.50
2018-04-11T23:19:34.939Z,93.60
2018-04-11T23:22:02.392Z,93.60
2018-04-11T23:24:29.911Z,93.60
2018-04-11T23:26:57.419Z,93.60
2018-04-11T23:29:25.669Z,93.60
2018-04-11T23:31:53.132Z,93.50
2018-04-11T23:34:20.677Z,93.10
2018-04-11T23:36:48.155Z,93.10
2018-04-11T23:39:15.617Z,93.00
2018-04-11T23:41:43.154Z,92.90
2018-04-11T23:44:10.621Z,92.80
2018-04-11T23:46:38.093Z,92.70
2018-04-11T23:49:06.439Z,92.60
2018-04-11T23:51:33.902Z,92.50
2018-04-11T23:54:01.498Z,92.50
2018-04-11T23:56:29.038Z,92.40
2018-04-11T23:58:57.994Z,92.20
